sensor_id;sensor_type;location;lat;lon;timestamp;P1;durP1;ratioP1;P2;durP2;ratioP2
30553;SDS011;17335;50.720;7.452;2022-08-02T00:00:32;6.43;;;4.15;;
30553;SDS011;17335;50.720;7.452;2022-08-02T00:02:59;6.18;;;4.38;;
30553;SDS011;17335;50.720;7.452;2022-08-02T00:05:25;7.13;;;4.90;;
30553;SDS011;17335;50.720;7.452;2022-08-02T00:07:54;5.88;;;4.35;;
30553;SDS011;17335;50.720;7.452;2022-08-02T00:10:21;8.35;;;4.47;;
30553;SDS011;17335;50.720;7.452;2022-08-02T00:12:47;9.18;;;3.85;;
30553;SDS011;17335;50.720;7.452;2022-08-02T00:15:14;6.43;;;4.35;;
30553;SDS011;17335;50.720;7.452;2022-08-02T00:17:42;7.97;;;4.45;;
30553;SDS011;17335;50.720;7.452;2022-08-02T00:20:09;6.03;;;3.88;;
30553;SDS011;17335;50.720;7.452;2022-08-02T00:22:37;7.55;;;4.90;;
30553;SDS011;17335;50.720;7.452;2022-08-02T00:25:03;6.80;;;4.30;;
30553;SDS011;17335;50.720;7.452;2022-08-02T00:27:30;5.45;;;4.25;;
30553;SDS011;17335;50.720;7.452;2022-08-02T00:29:57;5.57;;;4.43;;
30553;SDS011;17335;50.720;7.452;2022-08-02T00:32:23;8.23;;;4.40;;
30553;SDS011;17335;50.720;7.452;2022-08-02T00:34:50;6.72;;;4.13;;
30553;SDS011;17335;50.720;7.452;2022-08-02T00:37:17;6.65;;;4.60;;
30553;SDS011;17335;50.720;7.452;2022-08-02T00:39:43;6.25;;;4.40;;
30553;SDS011;17335;50.720;7.452;2022-08-02T00:42:12;6.07;;;4.28;;
30553;SDS011;17335;50.720;7.452;2022-08-02T00:44:40;6.22;;;4.38;;
30553;SDS011;17335;50.720;7.452;2022-08-02T00:47:07;6.97;;;4.50;;
30553;SDS011;17335;50.720;7.452;2022-08-02T00:49:34;8.30;;;4.70;;
30553;SDS011;17335;50.720;7.452;2022-08-02T00:52:01;10.27;;;4.85;;
30553;SDS011;17335;50.720;7.452;2022-08-02T00:54:27;6.93;;;4.90;;
30553;SDS011;17335;50.720;7.452;2022-08-02T00:56:54;6.75;;;4.78;;
30553;SDS011;17335;50.720;7.452;2022-08-02T00:59:21;8.32;;;4.75;;
30553;SDS011;17335;50.720;7.452;2022-08-02T01:01:47;6.03;;;4.65;;
30553;SDS011;17335;50.720;7.452;2022-08-02T01:04:26;8.23;;;5.43;;
30553;SDS011;17335;50.720;7.452;2022-08-02T01:07:00;7.88;;;5.13;;
30553;SDS011;17335;50.720;7.452;2022-08-02T01:09:42;8.27;;;5.78;;
30553;SDS011;17335;50.720;7.452;2022-08-02T01:12:11;8.38;;;4.65;;
30553;SDS011;17335;50.720;7.452;2022-08-02T01:14:42;9.35;;;4.97;;
30553;SDS011;17335;50.720;7.452;2022-08-02T01:17:14;9.13;;;5.13;;
30553;SDS011;17335;50.720;7.452;2022-08-02T01:19:53;6.53;;;4.80;;
30553;SDS011;17335;50.720;7.452;2022-08-02T01:25:23;8.20;;;5.05;;
30553;SDS011;17335;50.720;7.452;2022-08-02T01:30:35;6.97;;;4.40;;
30553;SDS011;17335;50.720;7.452;2022-08-02T01:33:06;6.93;;;4.88;;
30553;SDS011;17335;50.720;7.452;2022-08-02T01:35:41;10.70;;;5.60;;
30553;SDS011;17335;50.720;7.452;2022-08-02T01:38:21;8.07;;;4.90;;
30553;SDS011;17335;50.720;7.452;2022-08-02T01:40:53;7.35;;;4.78;;
30553;SDS011;17335;50.720;7.452;2022-08-02T01:43:21;7.35;;;4.95;;
30553;SDS011;17335;50.720;7.452;2022-08-02T01:45:50;5.60;;;4.35;;
30553;SDS011;17335;50.720;7.452;2022-08-02T01:48:18;7.38;;;4.45;;
30553;SDS011;17335;50.720;7.452;2022-08-02T01:50:46;5.78;;;4.38;;
30553;SDS011;17335;50.720;7.452;2022-08-02T01:53:15;7.43;;;4.60;;
30553;SDS011;17335;50.720;7.452;2022-08-02T01:55:45;6.45;;;4.88;;
30553;SDS011;17335;50.720;7.452;2022-08-02T01:58:24;6.70;;;4.65;;
30553;SDS011;17335;50.720;7.452;2022-08-02T02:00:52;6.85;;;5.10;;
30553;SDS011;17335;50.720;7.452;2022-08-02T02:03:23;8.23;;;4.95;;
30553;SDS011;17335;50.720;7.452;2022-08-02T02:05:52;7.68;;;5.05;;
30553;SDS011;17335;50.720;7.452;2022-08-02T02:08:24;8.23;;;4.78;;
30553;SDS011;17335;50.720;7.452;2022-08-02T02:10:55;7.78;;;5.15;;
30553;SDS011;17335;50.720;7.452;2022-08-02T02:13:43;7.70;;;5.32;;
30553;SDS011;17335;50.720;7.452;2022-08-02T02:16:11;8.35;;;5.30;;
30553;SDS011;17335;50.720;7.452;2022-08-02T02:18:39;7.65;;;5.10;;
30553;SDS011;17335;50.720;7.452;2022-08-02T02:21:09;6.10;;;4.93;;
30553;SDS011;17335;50.720;7.452;2022-08-02T02:23:37;8.13;;;4.97;;
30553;SDS011;17335;50.720;7.452;2022-08-02T02:26:05;6.97;;;4.90;;
30553;SDS011;17335;50.720;7.452;2022-08-02T02:28:35;8.88;;;5.68;;
30553;SDS011;17335;50.720;7.452;2022-08-02T02:31:08;7.15;;;5.15;;
30553;SDS011;17335;50.720;7.452;2022-08-02T02:33:42;8.90;;;5.78;;
30553;SDS011;17335;50.720;7.452;2022-08-02T02:36:15;9.15;;;5.57;;
30553;SDS011;17335;50.720;7.452;2022-08-02T02:38:43;7.82;;;5.22;;
30553;SDS011;17335;50.720;7.452;2022-08-02T02:41:11;8.43;;;5.72;;
30553;SDS011;17335;50.720;7.452;2022-08-02T02:43:39;7.63;;;4.70;;
30553;SDS011;17335;50.720;7.452;2022-08-02T02:46:07;9.70;;;5.18;;
30553;SDS011;17335;50.720;7.452;2022-08-02T02:48:35;10.63;;;5.78;;
30553;SDS011;17335;50.720;7.452;2022-08-02T02:51:03;10.57;;;5.50;;
30553;SDS011;17335;50.720;7.452;2022-08-02T02:53:39;10.07;;;5.70;;
30553;SDS011;17335;50.720;7.452;2022-08-02T02:56:27;8.25;;;5.25;;
30553;SDS011;17335;50.720;7.452;2022-08-02T02:58:54;8.43;;;5.55;;
30553;SDS011;17335;50.720;7.452;2022-08-02T03:01:21;10.27;;;5.97;;
30553;SDS011;17335;50.720;7.452;2022-08-02T03:04:16;9.38;;;5.80;;
30553;SDS011;17335;50.720;7.452;2022-08-02T03:06:42;11.50;;;6.03;;
30553;SDS011;17335;50.720;7.452;2022-08-02T03:09:09;8.88;;;5.75;;
30553;SDS011;17335;50.720;7.452;2022-08-02T03:11:37;8.57;;;5.43;;
30553;SDS011;17335;50.720;7.452;2022-08-02T03:14:07;8.70;;;6.15;;
30553;SDS011;17335;50.720;7.452;2022-08-02T03:16:42;9.75;;;5.35;;
30553;SDS011;17335;50.720;7.452;2022-08-02T03:19:09;8.40;;;5.82;;
30553;SDS011;17335;50.720;7.452;2022-08-02T03:21:35;7.95;;;5.40;;
30553;SDS011;17335;50.720;7.452;2022-08-02T03:24:03;9.35;;;5.63;;
30553;SDS011;17335;50.720;7.452;2022-08-02T03:26:30;11.60;;;5.45;;
30553;SDS011;17335;50.720;7.452;2022-08-02T03:28:56;9.55;;;5.78;;
30553;SDS011;17335;50.720;7.452;2022-08-02T03:31:23;9.07;;;5.65;;
30553;SDS011;17335;50.720;7.452;2022-08-02T03:33:49;9.40;;;5.53;;
30553;SDS011;17335;50.720;7.452;2022-08-02T03:36:18;10.75;;;5.65;;
30553;SDS011;17335;50.720;7.452;2022-08-02T03:38:46;11.02;;;5.85;;
30553;SDS011;17335;50.720;7.452;2022-08-02T03:41:14;9.48;;;4.90;;
30553;SDS011;17335;50.720;7.452;2022-08-02T03:43:44;8.57;;;5.75;;
30553;SDS011;17335;50.720;7.452;2022-08-02T03:46:12;11.27;;;6.28;;
30553;SDS011;17335;50.720;7.452;2022-08-02T03:48:42;8.63;;;5.38;;
30553;SDS011;17335;50.720;7.452;2022-08-02T03:51:09;8.00;;;5.28;;
30553;SDS011;17335;50.720;7.452;2022-08-02T03:53:36;8.52;;;5.72;;
30553;SDS011;17335;50.720;7.452;2022-08-02T03:56:04;8.52;;;5.53;;
30553;SDS011;17335;50.720;7.452;2022-08-02T03:58:32;9.57;;;5.60;;
30553;SDS011;17335;50.720;7.452;2022-08-02T04:00:59;8.50;;;5.72;;
30553;SDS011;17335;50.720;7.452;2022-08-02T04:03:26;9.77;;;5.82;;
30553;SDS011;17335;50.720;7.452;2022-08-02T04:05:52;7.63;;;5.38;;
30553;SDS011;17335;50.720;7.452;2022-08-02T04:08:30;8.18;;;5.40;;
30553;SDS011;17335;50.720;7.452;2022-08-02T04:11:04;9.75;;;5.47;;
30553;SDS011;17335;50.720;7.452;2022-08-02T04:13:50;10.55;;;5.60;;
30553;SDS011;17335;50.720;7.452;2022-08-02T04:16:22;10.32;;;6.00;;
30553;SDS011;17335;50.720;7.452;2022-08-02T04:18:59;7.78;;;5.25;;
30553;SDS011;17335;50.720;7.452;2022-08-02T04:21:32;10.07;;;5.70;;
30553;SDS011;17335;50.720;7.452;2022-08-02T04:24:19;9.68;;;5.22;;
30553;SDS011;17335;50.720;7.452;2022-08-02T04:26:54;7.40;;;5.20;;
30553;SDS011;17335;50.720;7.452;2022-08-02T04:29:32;7.25;;;4.95;;
30553;SDS011;17335;50.720;7.452;2022-08-02T04:32:00;7.95;;;5.07;;
30553;SDS011;17335;50.720;7.452;2022-08-02T04:34:28;9.07;;;5.32;;
30553;SDS011;17335;50.720;7.452;2022-08-02T04:36:55;8.70;;;4.93;;
30553;SDS011;17335;50.720;7.452;2022-08-02T04:39:23;8.80;;;5.30;;
30553;SDS011;17335;50.720;7.452;2022-08-02T04:41:50;8.40;;;5.40;;
30553;SDS011;17335;50.720;7.452;2022-08-02T04:44:22;8.23;;;4.88;;
30553;SDS011;17335;50.720;7.452;2022-08-02T04:46:50;6.70;;;5.00;;
30553;SDS011;17335;50.720;7.452;2022-08-02T04:49:17;8.93;;;5.65;;
30553;SDS011;17335;50.720;7.452;2022-08-02T04:51:44;7.88;;;4.90;;
30553;SDS011;17335;50.720;7.452;2022-08-02T04:54:11;10.75;;;5.05;;
30553;SDS011;17335;50.720;7.452;2022-08-02T04:56:38;8.93;;;5.63;;
30553;SDS011;17335;50.720;7.452;2022-08-02T04:59:05;10.13;;;6.03;;
30553;SDS011;17335;50.720;7.452;2022-08-02T05:01:32;7.15;;;5.20;;
30553;SDS011;17335;50.720;7.452;2022-08-02T05:04:00;9.63;;;5.38;;
30553;SDS011;17335;50.720;7.452;2022-08-02T05:06:28;9.68;;;5.60;;
30553;SDS011;17335;50.720;7.452;2022-08-02T05:08:55;9.68;;;5.25;;
30553;SDS011;17335;50.720;7.452;2022-08-02T05:11:22;9.85;;;5.05;;
30553;SDS011;17335;50.720;7.452;2022-08-02T05:14:02;8.82;;;5.60;;
30553;SDS011;17335;50.720;7.452;2022-08-02T05:16:30;8.48;;;5.28;;
30553;SDS011;17335;50.720;7.452;2022-08-02T05:19:00;12.20;;;6.07;;
30553;SDS011;17335;50.720;7.452;2022-08-02T05:21:28;9.60;;;5.55;;
30553;SDS011;17335;50.720;7.452;2022-08-02T05:23:55;8.40;;;5.10;;
30553;SDS011;17335;50.720;7.452;2022-08-02T05:26:22;8.10;;;5.10;;
30553;SDS011;17335;50.720;7.452;2022-08-02T05:28:48;10.35;;;5.55;;
30553;SDS011;17335;50.720;7.452;2022-08-02T05:31:15;6.38;;;4.28;;
30553;SDS011;17335;50.720;7.452;2022-08-02T05:33:41;7.80;;;4.22;;
30553;SDS011;17335;50.720;7.452;2022-08-02T05:36:08;6.80;;;4.20;;
30553;SDS011;17335;50.720;7.452;2022-08-02T05:38:35;6.57;;;4.38;;
30553;SDS011;17335;50.720;7.452;2022-08-02T05:41:03;6.68;;;4.32;;
30553;SDS011;17335;50.720;7.452;2022-08-02T05:43:30;6.55;;;3.90;;
30553;SDS011;17335;50.720;7.452;2022-08-02T05:45:57;7.53;;;4.35;;
30553;SDS011;17335;50.720;7.452;2022-08-02T05:48:24;7.63;;;4.30;;
30553;SDS011;17335;50.720;7.452;2022-08-02T05:51:04;5.93;;;3.55;;
30553;SDS011;17335;50.720;7.452;2022-08-02T05:53:37;8.68;;;3.72;;
30553;SDS011;17335;50.720;7.452;2022-08-02T05:59:02;5.32;;;3.88;;
30553;SDS011;17335;50.720;7.452;2022-08-02T06:02:01;7.28;;;4.10;;
30553;SDS011;17335;50.720;7.452;2022-08-02T06:04:49;7.82;;;4.47;;
30553;SDS011;17335;50.720;7.452;2022-08-02T06:07:29;6.35;;;4.38;;
30553;SDS011;17335;50.720;7.452;2022-08-02T06:10:00;8.30;;;4.60;;
30553;SDS011;17335;50.720;7.452;2022-08-02T06:12:32;7.07;;;5.22;;
30553;SDS011;17335;50.720;7.452;2022-08-02T06:15:06;8.57;;;5.60;;
30553;SDS011;17335;50.720;7.452;2022-08-02T06:17:33;7.43;;;5.25;;
30553;SDS011;17335;50.720;7.452;2022-08-02T06:20:09;7.85;;;5.00;;
30553;SDS011;17335;50.720;7.452;2022-08-02T06:22:41;15.52;;;7.38;;
30553;SDS011;17335;50.720;7.452;2022-08-02T06:25:10;9.02;;;5.97;;
30553;SDS011;17335;50.720;7.452;2022-08-02T06:27:58;7.63;;;4.97;;
30553;SDS011;17335;50.720;7.452;2022-08-02T06:30:36;11.40;;;6.00;;
30553;SDS011;17335;50.720;7.452;2022-08-02T06:33:03;7.05;;;4.82;;
30553;SDS011;17335;50.720;7.452;2022-08-02T06:35:32;11.98;;;6.00;;
30553;SDS011;17335;50.720;7.452;2022-08-02T06:38:07;9.05;;;5.72;;
30553;SDS011;17335;50.720;7.452;2022-08-02T06:40:44;8.80;;;6.35;;
30553;SDS011;17335;50.720;7.452;2022-08-02T06:43:22;8.25;;;5.88;;
30553;SDS011;17335;50.720;7.452;2022-08-02T06:45:56;8.75;;;5.90;;
30553;SDS011;17335;50.720;7.452;2022-08-02T06:48:43;9.88;;;5.03;;
30553;SDS011;17335;50.720;7.452;2022-08-02T06:51:10;9.02;;;5.05;;
30553;SDS011;17335;50.720;7.452;2022-08-02T06:53:38;7.05;;;4.55;;
30553;SDS011;17335;50.720;7.452;2022-08-02T06:56:05;7.28;;;4.63;;
30553;SDS011;17335;50.720;7.452;2022-08-02T06:58:34;7.35;;;4.68;;
30553;SDS011;17335;50.720;7.452;2022-08-02T07:01:01;12.63;;;5.20;;
30553;SDS011;17335;50.720;7.452;2022-08-02T07:03:27;7.47;;;4.72;;
30553;SDS011;17335;50.720;7.452;2022-08-02T07:05:54;10.75;;;4.45;;
30553;SDS011;17335;50.720;7.452;2022-08-02T07:08:21;8.88;;;4.75;;
30553;SDS011;17335;50.720;7.452;2022-08-02T07:10:48;7.20;;;4.60;;
30553;SDS011;17335;50.720;7.452;2022-08-02T07:13:14;9.77;;;5.13;;
30553;SDS011;17335;50.720;7.452;2022-08-02T07:15:41;13.57;;;4.82;;
30553;SDS011;17335;50.720;7.452;2022-08-02T07:18:14;6.43;;;4.05;;
30553;SDS011;17335;50.720;7.452;2022-08-02T07:20:42;6.97;;;4.10;;
30553;SDS011;17335;50.720;7.452;2022-08-02T07:23:10;8.30;;;4.50;;
30553;SDS011;17335;50.720;7.452;2022-08-02T07:25:37;5.78;;;4.20;;
30553;SDS011;17335;50.720;7.452;2022-08-02T07:28:25;7.72;;;3.85;;
30553;SDS011;17335;50.720;7.452;2022-08-02T07:30:52;7.78;;;3.78;;
30553;SDS011;17335;50.720;7.452;2022-08-02T07:33:18;8.93;;;4.03;;
30553;SDS011;17335;50.720;7.452;2022-08-02T07:36:06;6.35;;;3.72;;
30553;SDS011;17335;50.720;7.452;2022-08-02T07:38:41;9.05;;;3.88;;
30553;SDS011;17335;50.720;7.452;2022-08-02T07:41:10;7.15;;;4.20;;
30553;SDS011;17335;50.720;7.452;2022-08-02T07:43:37;9.90;;;3.97;;
30553;SDS011;17335;50.720;7.452;2022-08-02T07:46:04;6.60;;;3.85;;
30553;SDS011;17335;50.720;7.452;2022-08-02T07:48:30;6.63;;;3.60;;
30553;SDS011;17335;50.720;7.452;2022-08-02T07:50:57;5.30;;;3.50;;
30553;SDS011;17335;50.720;7.452;2022-08-02T07:53:29;6.70;;;3.50;;
30553;SDS011;17335;50.720;7.452;2022-08-02T07:56:15;11.13;;;3.13;;
30553;SDS011;17335;50.720;7.452;2022-08-02T07:58:42;6.93;;;3.15;;
30553;SDS011;17335;50.720;7.452;2022-08-02T08:01:09;8.70;;;2.92;;
30553;SDS011;17335;50.720;7.452;2022-08-02T08:03:37;7.45;;;2.80;;
30553;SDS011;17335;50.720;7.452;2022-08-02T08:06:03;6.03;;;3.03;;
30553;SDS011;17335;50.720;7.452;2022-08-02T08:08:30;6.30;;;2.65;;
30553;SDS011;17335;50.720;7.452;2022-08-02T08:10:57;4.15;;;2.75;;
30553;SDS011;17335;50.720;7.452;2022-08-02T08:13:23;4.22;;;2.50;;
30553;SDS011;17335;50.720;7.452;2022-08-02T08:15:50;6.25;;;2.95;;
30553;SDS011;17335;50.720;7.452;2022-08-02T08:18:18;5.00;;;2.72;;
30553;SDS011;17335;50.720;7.452;2022-08-02T08:20:48;4.85;;;2.65;;
30553;SDS011;17335;50.720;7.452;2022-08-02T08:23:14;5.15;;;3.00;;
30553;SDS011;17335;50.720;7.452;2022-08-02T08:25:41;5.88;;;2.53;;
30553;SDS011;17335;50.720;7.452;2022-08-02T08:28:08;5.15;;;2.10;;
30553;SDS011;17335;50.720;7.452;2022-08-02T08:30:34;4.53;;;2.30;;
30553;SDS011;17335;50.720;7.452;2022-08-02T08:33:01;4.00;;;2.53;;
30553;SDS011;17335;50.720;7.452;2022-08-02T08:35:29;5.05;;;2.78;;
30553;SDS011;17335;50.720;7.452;2022-08-02T08:37:56;4.38;;;2.90;;
30553;SDS011;17335;50.720;7.452;2022-08-02T08:40:23;3.58;;;1.92;;
30553;SDS011;17335;50.720;7.452;2022-08-02T08:42:50;5.93;;;2.40;;
30553;SDS011;17335;50.720;7.452;2022-08-02T08:45:17;4.72;;;2.90;;
30553;SDS011;17335;50.720;7.452;2022-08-02T08:47:47;3.25;;;1.92;;
30553;SDS011;17335;50.720;7.452;2022-08-02T08:50:19;4.57;;;2.00;;
30553;SDS011;17335;50.720;7.452;2022-08-02T08:53:07;2.90;;;1.58;;
30553;SDS011;17335;50.720;7.452;2022-08-02T08:55:37;4.18;;;2.00;;
30553;SDS011;17335;50.720;7.452;2022-08-02T08:58:05;2.83;;;1.67;;
30553;SDS011;17335;50.720;7.452;2022-08-02T09:00:33;3.38;;;1.92;;
30553;SDS011;17335;50.720;7.452;2022-08-02T09:03:01;3.17;;;1.85;;
30553;SDS011;17335;50.720;7.452;2022-08-02T09:05:37;5.20;;;1.90;;
30553;SDS011;17335;50.720;7.452;2022-08-02T09:08:05;3.28;;;1.90;;
30553;SDS011;17335;50.720;7.452;2022-08-02T09:10:40;3.28;;;2.00;;
30553;SDS011;17335;50.720;7.452;2022-08-02T09:13:18;3.25;;;1.88;;
30553;SDS011;17335;50.720;7.452;2022-08-02T09:16:10;3.65;;;1.85;;
30553;SDS011;17335;50.720;7.452;2022-08-02T09:18:43;4.57;;;1.83;;
30553;SDS011;17335;50.720;7.452;2022-08-02T09:21:12;3.33;;;1.83;;
30553;SDS011;17335;50.720;7.452;2022-08-02T09:23:41;2.72;;;1.70;;
30553;SDS011;17335;50.720;7.452;2022-08-02T09:26:11;4.97;;;2.13;;
30553;SDS011;17335;50.720;7.452;2022-08-02T09:28:40;3.92;;;2.15;;
30553;SDS011;17335;50.720;7.452;2022-08-02T09:31:10;3.33;;;1.90;;
30553;SDS011;17335;50.720;7.452;2022-08-02T09:33:39;4.45;;;2.08;;
30553;SDS011;17335;50.720;7.452;2022-08-02T09:36:07;2.80;;;1.70;;
30553;SDS011;17335;50.720;7.452;2022-08-02T09:38:38;5.05;;;1.95;;
30553;SDS011;17335;50.720;7.452;2022-08-02T09:41:07;3.28;;;1.70;;
30553;SDS011;17335;50.720;7.452;2022-08-02T09:43:46;5.72;;;2.00;;
30553;SDS011;17335;50.720;7.452;2022-08-02T09:46:31;3.47;;;1.70;;
30553;SDS011;17335;50.720;7.452;2022-08-02T09:49:02;3.55;;;1.98;;
30553;SDS011;17335;50.720;7.452;2022-08-02T09:51:31;3.97;;;1.88;;
30553;SDS011;17335;50.720;7.452;2022-08-02T09:54:00;2.70;;;1.80;;
30553;SDS011;17335;50.720;7.452;2022-08-02T09:56:47;5.95;;;1.73;;
30553;SDS011;17335;50.720;7.452;2022-08-02T09:59:16;7.57;;;1.70;;
30553;SDS011;17335;50.720;7.452;2022-08-02T10:01:44;5.88;;;2.20;;
30553;SDS011;17335;50.720;7.452;2022-08-02T10:04:24;3.25;;;1.80;;
30553;SDS011;17335;50.720;7.452;2022-08-02T10:06:54;3.25;;;1.98;;
30553;SDS011;17335;50.720;7.452;2022-08-02T10:09:21;4.72;;;1.90;;
30553;SDS011;17335;50.720;7.452;2022-08-02T10:11:48;3.35;;;1.75;;
30553;SDS011;17335;50.720;7.452;2022-08-02T10:14:16;3.00;;;1.58;;
30553;SDS011;17335;50.720;7.452;2022-08-02T10:16:45;5.57;;;2.00;;
30553;SDS011;17335;50.720;7.452;2022-08-02T10:19:12;5.45;;;1.85;;
30553;SDS011;17335;50.720;7.452;2022-08-02T10:21:47;5.65;;;1.73;;
30553;SDS011;17335;50.720;7.452;2022-08-02T10:24:19;3.60;;;1.90;;
30553;SDS011;17335;50.720;7.452;2022-08-02T10:26:47;2.97;;;1.98;;
30553;SDS011;17335;50.720;7.452;2022-08-02T10:29:15;4.18;;;1.73;;
30553;SDS011;17335;50.720;7.452;2022-08-02T10:31:57;2.50;;;1.55;;
30553;SDS011;17335;50.720;7.452;2022-08-02T10:34:28;8.20;;;1.88;;
30553;SDS011;17335;50.720;7.452;2022-08-02T10:37:02;5.55;;;2.08;;
30553;SDS011;17335;50.720;7.452;2022-08-02T10:39:38;3.78;;;1.67;;
30553;SDS011;17335;50.720;7.452;2022-08-02T10:42:41;4.35;;;1.70;;
30553;SDS011;17335;50.720;7.452;2022-08-02T10:45:13;3.85;;;1.95;;
30553;SDS011;17335;50.720;7.452;2022-08-02T10:53:21;3.75;;;1.75;;
30553;SDS011;17335;50.720;7.452;2022-08-02T10:55:52;2.63;;;1.83;;
30553;SDS011;17335;50.720;7.452;2022-08-02T10:58:21;3.28;;;1.70;;
30553;SDS011;17335;50.720;7.452;2022-08-02T11:00:54;6.90;;;1.67;;
30553;SDS011;17335;50.720;7.452;2022-08-02T11:03:38;3.10;;;1.70;;
30553;SDS011;17335;50.720;7.452;2022-08-02T11:06:07;4.72;;;1.77;;
30553;SDS011;17335;50.720;7.452;2022-08-02T11:11:58;3.65;;;1.85;;
30553;SDS011;17335;50.720;7.452;2022-08-02T11:14:28;2.40;;;1.65;;
30553;SDS011;17335;50.720;7.452;2022-08-02T11:19:23;3.08;;;1.80;;
30553;SDS011;17335;50.720;7.452;2022-08-02T11:22:09;4.90;;;1.70;;
30553;SDS011;17335;50.720;7.452;2022-08-02T11:24:38;2.47;;;1.58;;
30553;SDS011;17335;50.720;7.452;2022-08-02T11:27:17;3.00;;;1.85;;
30553;SDS011;17335;50.720;7.452;2022-08-02T11:29:47;2.17;;;1.40;;
30553;SDS011;17335;50.720;7.452;2022-08-02T11:32:18;3.58;;;1.60;;
30553;SDS011;17335;50.720;7.452;2022-08-02T11:34:56;2.17;;;1.52;;
30553;SDS011;17335;50.720;7.452;2022-08-02T11:37:29;3.33;;;1.67;;
30553;SDS011;17335;50.720;7.452;2022-08-02T11:39:57;2.97;;;1.73;;
30553;SDS011;17335;50.720;7.452;2022-08-02T11:42:31;2.40;;;1.50;;
30553;SDS011;17335;50.720;7.452;2022-08-02T11:44:58;2.97;;;1.40;;
30553;SDS011;17335;50.720;7.452;2022-08-02T11:47:25;3.17;;;1.60;;
30553;SDS011;17335;50.720;7.452;2022-08-02T11:49:52;6.40;;;1.65;;
30553;SDS011;17335;50.720;7.452;2022-08-02T11:52:33;2.58;;;1.63;;
30553;SDS011;17335;50.720;7.452;2022-08-02T11:55:00;3.20;;;1.45;;
30553;SDS011;17335;50.720;7.452;2022-08-02T11:57:27;4.45;;;1.58;;
30553;SDS011;17335;50.720;7.452;2022-08-02T12:00:15;3.33;;;1.80;;
30553;SDS011;17335;50.720;7.452;2022-08-02T12:02:47;2.03;;;1.50;;
30553;SDS011;17335;50.720;7.452;2022-08-02T12:05:22;5.75;;;1.77;;
30553;SDS011;17335;50.720;7.452;2022-08-02T12:08:09;2.70;;;1.70;;
30553;SDS011;17335;50.720;7.452;2022-08-02T12:10:36;4.90;;;1.98;;
30553;SDS011;17335;50.720;7.452;2022-08-02T12:13:15;3.22;;;1.80;;
30553;SDS011;17335;50.720;7.452;2022-08-02T12:15:43;2.33;;;1.30;;
30553;SDS011;17335;50.720;7.452;2022-08-02T12:18:12;4.25;;;1.85;;
30553;SDS011;17335;50.720;7.452;2022-08-02T12:21:08;3.13;;;1.77;;
30553;SDS011;17335;50.720;7.452;2022-08-02T12:23:49;2.85;;;1.60;;
30553;SDS011;17335;50.720;7.452;2022-08-02T12:26:26;2.25;;;1.60;;
30553;SDS011;17335;50.720;7.452;2022-08-02T12:28:55;4.88;;;1.60;;
30553;SDS011;17335;50.720;7.452;2022-08-02T12:31:37;2.70;;;1.60;;
30553;SDS011;17335;50.720;7.452;2022-08-02T12:34:23;4.78;;;1.83;;
30553;SDS011;17335;50.720;7.452;2022-08-02T12:39:34;2.28;;;1.55;;
30553;SDS011;17335;50.720;7.452;2022-08-02T12:42:01;2.92;;;1.55;;
30553;SDS011;17335;50.720;7.452;2022-08-02T12:44:28;2.25;;;1.65;;
30553;SDS011;17335;50.720;7.452;2022-08-02T12:47:01;2.33;;;1.52;;
30553;SDS011;17335;50.720;7.452;2022-08-02T12:49:31;2.65;;;1.48;;
30553;SDS011;17335;50.720;7.452;2022-08-02T12:51:58;2.28;;;1.60;;
30553;SDS011;17335;50.720;7.452;2022-08-02T12:54:37;2.28;;;1.70;;
30553;SDS011;17335;50.720;7.452;2022-08-02T12:57:10;2.40;;;1.50;;
30553;SDS011;17335;50.720;7.452;2022-08-02T12:59:40;3.20;;;1.60;;
30553;SDS011;17335;50.720;7.452;2022-08-02T13:02:10;5.13;;;1.80;;
30553;SDS011;17335;50.720;7.452;2022-08-02T13:04:39;3.40;;;1.70;;
30553;SDS011;17335;50.720;7.452;2022-08-02T13:07:15;4.43;;;1.75;;
30553;SDS011;17335;50.720;7.452;2022-08-02T13:09:42;2.28;;;1.60;;
30553;SDS011;17335;50.720;7.452;2022-08-02T13:12:10;3.60;;;1.70;;
30553;SDS011;17335;50.720;7.452;2022-08-02T13:14:38;3.85;;;1.45;;
30553;SDS011;17335;50.720;7.452;2022-08-02T13:17:08;2.45;;;1.60;;
30553;SDS011;17335;50.720;7.452;2022-08-02T13:19:35;2.25;;;1.50;;
30553;SDS011;17335;50.720;7.452;2022-08-02T13:22:03;3.22;;;1.55;;
30553;SDS011;17335;50.720;7.452;2022-08-02T13:24:31;2.72;;;1.50;;
30553;SDS011;17335;50.720;7.452;2022-08-02T13:27:18;3.65;;;1.50;;
30553;SDS011;17335;50.720;7.452;2022-08-02T13:29:46;2.92;;;1.60;;
30553;SDS011;17335;50.720;7.452;2022-08-02T13:32:12;2.17;;;1.42;;
30553;SDS011;17335;50.720;7.452;2022-08-02T13:34:40;1.75;;;1.23;;
30553;SDS011;17335;50.720;7.452;2022-08-02T13:37:06;2.10;;;1.50;;
30553;SDS011;17335;50.720;7.452;2022-08-02T13:39:33;2.58;;;1.40;;
30553;SDS011;17335;50.720;7.452;2022-08-02T13:41:59;2.70;;;1.40;;
30553;SDS011;17335;50.720;7.452;2022-08-02T13:44:26;2.83;;;1.35;;
30553;SDS011;17335;50.720;7.452;2022-08-02T13:46:53;3.17;;;1.70;;
30553;SDS011;17335;50.720;7.452;2022-08-02T13:49:19;2.40;;;1.50;;
30553;SDS011;17335;50.720;7.452;2022-08-02T13:52:07;3.88;;;1.58;;
30553;SDS011;17335;50.720;7.452;2022-08-02T13:54:33;2.58;;;1.48;;
30553;SDS011;17335;50.720;7.452;2022-08-02T13:57:00;2.58;;;1.40;;
30553;SDS011;17335;50.720;7.452;2022-08-02T13:59:27;3.00;;;1.60;;
30553;SDS011;17335;50.720;7.452;2022-08-02T14:02:13;2.15;;;1.38;;
30553;SDS011;17335;50.720;7.452;2022-08-02T14:04:43;3.05;;;1.60;;
30553;SDS011;17335;50.720;7.452;2022-08-02T14:07:10;2.75;;;1.40;;
30553;SDS011;17335;50.720;7.452;2022-08-02T14:09:38;3.67;;;1.60;;
30553;SDS011;17335;50.720;7.452;2022-08-02T14:12:05;2.50;;;1.30;;
30553;SDS011;17335;50.720;7.452;2022-08-02T14:14:33;2.03;;;1.33;;
30553;SDS011;17335;50.720;7.452;2022-08-02T14:16:59;1.90;;;1.30;;
30553;SDS011;17335;50.720;7.452;2022-08-02T14:19:27;5.40;;;1.55;;
30553;SDS011;17335;50.720;7.452;2022-08-02T14:21:53;1.92;;;1.30;;
30553;SDS011;17335;50.720;7.452;2022-08-02T14:24:37;2.42;;;1.45;;
30553;SDS011;17335;50.720;7.452;2022-08-02T14:27:04;2.13;;;1.38;;
30553;SDS011;17335;50.720;7.452;2022-08-02T14:29:31;2.50;;;1.50;;
30553;SDS011;17335;50.720;7.452;2022-08-02T14:31:58;3.10;;;1.70;;
30553;SDS011;17335;50.720;7.452;2022-08-02T14:34:25;2.95;;;1.50;;
30553;SDS011;17335;50.720;7.452;2022-08-02T14:36:53;2.40;;;1.60;;
30553;SDS011;17335;50.720;7.452;2022-08-02T14:39:20;2.55;;;1.60;;
30553;SDS011;17335;50.720;7.452;2022-08-02T14:41:48;4.20;;;1.67;;
30553;SDS011;17335;50.720;7.452;2022-08-02T14:44:25;2.60;;;1.58;;
30553;SDS011;17335;50.720;7.452;2022-08-02T14:46:52;3.38;;;1.40;;
30553;SDS011;17335;50.720;7.452;2022-08-02T14:49:19;2.13;;;1.33;;
30553;SDS011;17335;50.720;7.452;2022-08-02T14:51:51;3.60;;;1.30;;
30553;SDS011;17335;50.720;7.452;2022-08-02T14:54:22;2.20;;;1.52;;
30553;SDS011;17335;50.720;7.452;2022-08-02T14:57:00;2.78;;;1.48;;
30553;SDS011;17335;50.720;7.452;2022-08-02T14:59:29;2.45;;;1.40;;
30553;SDS011;17335;50.720;7.452;2022-08-02T15:01:56;6.30;;;1.70;;
30553;SDS011;17335;50.720;7.452;2022-08-02T15:04:23;2.10;;;1.38;;
30553;SDS011;17335;50.720;7.452;2022-08-02T15:06:50;2.30;;;1.60;;
30553;SDS011;17335;50.720;7.452;2022-08-02T15:09:18;2.75;;;1.50;;
30553;SDS011;17335;50.720;7.452;2022-08-02T15:11:45;2.20;;;1.50;;
30553;SDS011;17335;50.720;7.452;2022-08-02T15:14:15;1.85;;;1.40;;
30553;SDS011;17335;50.720;7.452;2022-08-02T15:16:51;2.90;;;1.63;;
30553;SDS011;17335;50.720;7.452;2022-08-02T15:19:23;3.28;;;1.70;;
30553;SDS011;17335;50.720;7.452;2022-08-02T15:22:10;2.33;;;1.38;;
30553;SDS011;17335;50.720;7.452;2022-08-02T15:24:44;3.38;;;1.50;;
30553;SDS011;17335;50.720;7.452;2022-08-02T15:27:11;2.47;;;1.40;;
30553;SDS011;17335;50.720;7.452;2022-08-02T15:29:40;2.58;;;1.50;;
30553;SDS011;17335;50.720;7.452;2022-08-02T15:32:08;3.13;;;1.45;;